TimeEDT,TemperatureF,Dew PointF,Humidity,Sea Level PressureIn,VisibilityMPH,Wind Direction,Wind SpeedMPH,Gust SpeedMPH,PrecipitationIn,Events,Conditions,WindDirDegrees,DateUTC
12:15 AM,68.0,66.2,94,30.05,7.0,Calm,Calm,-,N/A,,Clear,0,2013-08-28 04:15:00
12:35 AM,68.0,66.2,94,30.04,7.0,Calm,Calm,-,N/A,,Clear,0,2013-08-28 04:35:00
12:55 AM,68.0,64.4,88,30.04,5.0,Calm,Calm,-,N/A,,Clear,0,2013-08-28 04:55:00
1:15 AM,68.0,64.4,88,30.03,4.0,Calm,Calm,-,N/A,,Clear,0,2013-08-28 05:15:00
1:35 AM,68.0,64.4,88,30.03,7.0,Calm,Calm,-,N/A,,Clear,0,2013-08-28 05:35:00
1:55 AM,66.2,64.4,94,30.02,5.0,Calm,Calm,-,N/A,,Clear,0,2013-08-28 05:55:00
2:15 AM,66.2,64.4,94,30.01,7.0,Calm,Calm,-,N/A,,Clear,0,2013-08-28 06:15:00
2:35 AM,64.4,64.4,100,30.01,5.0,Calm,Calm,-,N/A,,Clear,0,2013-08-28 06:35:00
2:55 AM,64.4,64.4,100,30.00,5.0,Calm,Calm,-,N/A,,Clear,0,2013-08-28 06:55:00
3:15 AM,64.4,64.4,100,30.00,5.0,Calm,Calm,-,N/A,,Clear,0,2013-08-28 07:15:00
3:35 AM,64.4,62.6,94,30.00,5.0,Calm,Calm,-,N/A,,Clear,0,2013-08-28 07:35:00
3:55 AM,64.4,62.6,94,30.00,5.0,Calm,Calm,-,N/A,,Clear,0,2013-08-28 07:55:00
4:15 AM,64.4,62.6,94,30.00,5.0,Calm,Calm,-,N/A,,Clear,0,2013-08-28 08:15:00
4:35 AM,62.6,62.6,100,29.99,4.0,Calm,Calm,-,N/A,,Clear,0,2013-08-28 08:35:00
4:55 AM,62.6,62.6,100,29.99,5.0,Calm,Calm,-,N/A,,Clear,0,2013-08-28 08:55:00
5:15 AM,62.6,62.6,100,29.99,5.0,Calm,Calm,-,N/A,,Clear,0,2013-08-28 09:15:00
5:35 AM,62.6,62.6,100,29.99,5.0,Calm,Calm,-,N/A,,Clear,0,2013-08-28 09:35:00
5:55 AM,62.6,60.8,94,29.99,4.0,Calm,Calm,-,N/A,,Clear,0,2013-08-28 09:55:00
6:15 AM,62.6,62.6,100,30.00,5.0,Calm,Calm,-,N/A,,Clear,0,2013-08-28 10:15:00
6:35 AM,62.6,60.8,94,30.00,5.0,Calm,Calm,-,N/A,,Clear,0,2013-08-28 10:35:00
6:55 AM,62.6,60.8,94,30.01,4.0,Calm,Calm,-,N/A,,Clear,0,2013-08-28 10:55:00
7:15 AM,62.6,60.8,94,30.02,2.5,Calm,Calm,-,N/A,,Clear,0,2013-08-28 11:15:00
7:35 AM,62.6,60.8,94,30.02,3.0,Calm,Calm,-,N/A,,Clear,0,2013-08-28 11:35:00
7:55 AM,62.6,62.6,100,30.02,4.0,Calm,Calm,-,N/A,,Clear,0,2013-08-28 11:55:00
8:15 AM,64.4,64.4,100,30.02,5.0,Calm,Calm,-,N/A,,Clear,0,2013-08-28 12:15:00
8:35 AM,68.0,64.4,88,30.02,5.0,Calm,Calm,-,N/A,,Clear,0,2013-08-28 12:35:00
8:55 AM,69.8,64.4,83,30.02,7.0,Calm,Calm,-,N/A,,Clear,0,2013-08-28 12:55:00
9:15 AM,69.8,66.2,88,30.02,7.0,West,3.5,-,N/A,,Clear,270,2013-08-28 13:15:00
9:35 AM,71.6,66.2,83,30.03,10.0,WNW,3.5,-,N/A,,Clear,290,2013-08-28 13:35:00
9:55 AM,73.4,68.0,83,30.03,10.0,Calm,Calm,-,N/A,,Clear,0,2013-08-28 13:55:00
10:15 AM,77.0,68.0,74,30.03,10.0,Calm,Calm,-,N/A,,Clear,0,2013-08-28 14:15:00
10:35 AM,77.0,68.0,74,30.03,10.0,Calm,Calm,-,N/A,,Clear,0,2013-08-28 14:35:00
10:55 AM,77.0,68.0,74,30.04,10.0,Calm,Calm,-,N/A,,Clear,0,2013-08-28 14:55:00
11:15 AM,78.8,68.0,69,30.04,10.0,Calm,Calm,-,N/A,,Clear,0,2013-08-28 15:15:00
11:35 AM,80.6,68.0,65,30.05,10.0,South,4.6,-,N/A,,Clear,190,2013-08-28 15:35:00
11:55 AM,80.6,68.0,65,30.04,10.0,SW,3.5,-,N/A,,Clear,220,2013-08-28 15:55:00
12:15 PM,82.4,68.0,62,30.04,10.0,SSW,4.6,-,N/A,,Clear,200,2013-08-28 16:15:00
12:35 PM,82.4,69.8,66,30.04,10.0,SSW,3.5,-,N/A,,Clear,210,2013-08-28 16:35:00
12:55 PM,84.2,68.0,58,30.04,10.0,SW,3.5,-,N/A,,Clear,220,2013-08-28 16:55:00
1:15 PM,84.2,68.0,58,30.03,10.0,SSW,3.5,-,N/A,,Clear,210,2013-08-28 17:15:00
1:35 PM,86.0,68.0,55,30.03,10.0,SSW,3.5,-,N/A,,Clear,210,2013-08-28 17:35:00
1:55 PM,86.0,64.4,48,30.03,10.0,Calm,Calm,-,N/A,,Clear,0,2013-08-28 17:55:00
2:15 PM,86.0,68.0,55,30.02,10.0,SW,3.5,-,N/A,,Clear,220,2013-08-28 18:15:00
2:35 PM,86.0,68.0,55,30.01,10.0,SW,4.6,-,N/A,,Scattered Clouds,220,2013-08-28 18:35:00
2:55 PM,87.8,64.4,46,30.01,10.0,SSW,3.5,-,N/A,,Scattered Clouds,210,2013-08-28 18:55:00
3:15 PM,87.8,64.4,46,30.00,10.0,South,6.9,-,N/A,,Clear,170,2013-08-28 19:15:00
3:35 PM,87.8,66.2,49,29.99,10.0,West,4.6,-,N/A,,Clear,270,2013-08-28 19:35:00
3:55 PM,87.8,64.4,46,29.99,10.0,NW,4.6,-,N/A,,Scattered Clouds,320,2013-08-28 19:55:00
4:15 PM,87.8,64.4,46,29.98,10.0,West,4.6,-,N/A,,Clear,270,2013-08-28 20:15:00
4:35 PM,87.8,64.4,46,29.98,10.0,Calm,Calm,-,N/A,,Clear,0,2013-08-28 20:35:00
4:55 PM,87.8,64.4,46,29.98,10.0,Calm,Calm,-,N/A,,Clear,0,2013-08-28 20:55:00
5:15 PM,87.8,66.2,49,29.97,10.0,West,3.5,-,N/A,,Clear,260,2013-08-28 21:15:00
5:35 PM,87.8,66.2,49,29.96,10.0,Calm,Calm,-,N/A,,Clear,0,2013-08-28 21:35:00
5:55 PM,87.8,68.0,52,29.96,10.0,SSW,3.5,-,N/A,,Clear,210,2013-08-28 21:55:00
6:15 PM,86.0,68.0,55,29.96,10.0,Calm,Calm,-,N/A,,Clear,0,2013-08-28 22:15:00
6:35 PM,86.0,68.0,55,29.96,10.0,Calm,Calm,-,N/A,,Clear,0,2013-08-28 22:35:00
6:55 PM,84.2,68.0,58,29.96,10.0,Calm,Calm,-,N/A,,Clear,0,2013-08-28 22:55:00
7:15 PM,82.4,69.8,66,29.96,10.0,Calm,Calm,-,N/A,,Clear,0,2013-08-28 23:15:00
7:35 PM,80.6,69.8,70,29.96,10.0,Calm,Calm,-,N/A,,Clear,0,2013-08-28 23:35:00
7:55 PM,80.6,69.8,70,29.96,10.0,Calm,Calm,-,N/A,,Clear,0,2013-08-28 23:55:00
8:15 PM,78.8,69.8,74,29.97,10.0,Calm,Calm,-,N/A,,Clear,0,2013-08-29 00:15:00
8:35 PM,78.8,69.8,74,29.97,10.0,Calm,Calm,-,N/A,,Clear,0,2013-08-29 00:35:00
8:55 PM,77.0,69.8,78,29.97,10.0,Calm,Calm,-,N/A,,Clear,0,2013-08-29 00:55:00
9:15 PM,77.0,69.8,78,29.98,10.0,Calm,Calm,-,N/A,,Clear,0,2013-08-29 01:15:00
9:35 PM,77.0,69.8,78,29.98,10.0,Calm,Calm,-,N/A,,Clear,0,2013-08-29 01:35:00
9:55 PM,77.0,69.8,78,29.98,10.0,Calm,Calm,-,N/A,,Clear,0,2013-08-29 01:55:00
10:15 PM,75.2,69.8,83,29.98,10.0,Calm,Calm,-,N/A,,Clear,0,2013-08-29 02:15:00
10:35 PM,73.4,71.6,94,29.98,7.0,Calm,Calm,-,N/A,,Clear,0,2013-08-29 02:35:00
10:55 PM,73.4,69.8,88,29.98,7.0,Calm,Calm,-,N/A,,Clear,0,2013-08-29 02:55:00
11:15 PM,73.4,69.8,88,29.98,7.0,Calm,Calm,-,N/A,,Clear,0,2013-08-29 03:15:00
11:35 PM,73.4,69.8,88,29.98,7.0,Calm,Calm,-,N/A,,Clear,0,2013-08-29 03:35:00
11:55 PM,73.4,69.8,88,29.98,7.0,Calm,Calm,-,N/A,,Clear,0,2013-08-29 03:55:00